createdAt,value
2023-03-31T00:02:32.371Z,98325.34
2023-03-31T00:12:33.854Z,98310.03
2023-03-31T00:22:38.369Z,98298.47
2023-03-31T00:32:39.829Z,98281.53
2023-03-31T00:42:41.793Z,98261.31
2023-03-31T00:52:43.300Z,98222.06
2023-03-31T01:02:58.066Z,98205.16
2023-03-31T01:12:59.713Z,98184.72
2023-03-31T01:23:29.626Z,98162.84
2023-03-31T01:33:52.237Z,98151.06
2023-03-31T01:43:59.224Z,98135.03
2023-03-31T01:54:15.562Z,98109.00
2023-03-31T02:04:25.023Z,98097.09
2023-03-31T02:14:28.624Z,98077.69
2023-03-31T02:24:29.997Z,98059.09
2023-03-31T02:34:31.428Z,98031.69
2023-03-31T02:44:39.312Z,97997.22
2023-03-31T02:54:57.290Z,97960.09
2023-03-31T03:04:58.946Z,97928.13
2023-03-31T03:15:13.716Z,97896.16
2023-03-31T03:25:17.078Z,97886.06
2023-03-31T03:35:18.488Z,97864.81
2023-03-31T03:45:20.033Z,97861.94
2023-03-31T03:55:21.570Z,97820.72
2023-03-31T04:05:22.986Z,97811.63
2023-03-31T04:15:24.828Z,97808.09
2023-03-31T04:25:26.212Z,97797.22
2023-03-31T04:35:42.432Z,97763.13
2023-03-31T04:45:43.969Z,97715.09
2023-03-31T04:55:45.422Z,97687.34
2023-03-31T05:05:46.960Z,97661.75
2023-03-31T05:15:50.801Z,97650.84
2023-03-31T05:25:52.338Z,97624.31
2023-03-31T05:35:53.798Z,97604.91
2023-03-31T05:45:55.213Z,97590.09
2023-03-31T05:56:00.462Z,97579.34
2023-03-31T06:06:02.040Z,97572.16
2023-03-31T06:16:03.465Z,97563.38
2023-03-31T06:26:08.107Z,97547.81
2023-03-31T06:36:10.541Z,97533.88
2023-03-31T06:46:12.331Z,97528.25
2023-03-31T06:56:14.155Z,97528.25
2023-03-31T07:06:15.813Z,97510.56
2023-03-31T07:16:17.241Z,97513.56
2023-03-31T07:26:18.718Z,97518.78
2023-03-31T07:36:20.757Z,97495.97
2023-03-31T07:46:24.543Z,97487.25
2023-03-31T07:56:26.172Z,97487.81
2023-03-31T08:06:28.940Z,97477.63
2023-03-31T08:16:30.390Z,97472.63
2023-03-31T08:26:32.984Z,97459.03
2023-03-31T08:36:34.524Z,97443.41
2023-03-31T08:46:36.164Z,97437.09
2023-03-31T08:56:41.836Z,97434.75
2023-03-31T09:06:48.074Z,97417.50
2023-03-31T09:16:59.803Z,97408.66
2023-03-31T09:27:08.238Z,97404.84
2023-03-31T09:37:11.058Z,97392.03
2023-03-31T09:47:29.491Z,97383.34
2023-03-31T09:57:36.100Z,97358.78
2023-03-31T10:07:37.695Z,97338.56
2023-03-31T10:17:53.781Z,97339.81
2023-03-31T10:27:56.661Z,97336.53
2023-03-31T10:37:59.922Z,97323.78
2023-03-31T10:48:01.510Z,97311.16
2023-03-31T10:58:19.775Z,97303.63
2023-03-31T11:09:00.294Z,97292.50
2023-03-31T11:19:46.806Z,97292.00
2023-03-31T11:29:51.481Z,97356.09
2023-03-31T11:40:24.467Z,97339.13
2023-03-31T11:50:27.876Z,97344.25
2023-03-31T12:00:54.042Z,97332.69
2023-03-31T12:11:08.584Z,97296.56
2023-03-31T12:21:10.186Z,97283.88
2023-03-31T12:31:17.000Z,97269.03
2023-03-31T12:41:42.977Z,97256.53
2023-03-31T12:52:06.792Z,97272.63
2023-03-31T13:02:18.727Z,97266.16
2023-03-31T13:12:22.123Z,97242.38
2023-03-31T13:22:35.008Z,97242.59
2023-03-31T13:32:37.253Z,97236.66
2023-03-31T13:42:49.404Z,97243.38
2023-03-31T13:52:59.489Z,97249.00
2023-03-31T14:03:26.237Z,97240.88
2023-03-31T14:13:27.938Z,97241.09
2023-03-31T14:23:51.041Z,97221.13
2023-03-31T14:34:21.355Z,97209.28
2023-03-31T14:44:22.965Z,97207.88
2023-03-31T14:54:24.387Z,97198.66
2023-03-31T15:04:41.371Z,97176.81
2023-03-31T15:14:49.409Z,97166.28
2023-03-31T15:24:50.840Z,97156.53
2023-03-31T15:34:52.270Z,97157.84
2023-03-31T15:44:54.415Z,97202.69
2023-03-31T15:54:56.727Z,97213.41
2023-03-31T16:04:58.804Z,97203.97
2023-03-31T16:15:03.131Z,97222.78
2023-03-31T16:25:09.485Z,97232.69
2023-03-31T16:35:11.164Z,97229.13
2023-03-31T16:45:14.964Z,97213.97
2023-03-31T16:55:16.602Z,97210.19
2023-03-31T17:05:18.091Z,97202.31
2023-03-31T17:15:19.646Z,97194.53
2023-03-31T17:25:21.302Z,97189.59
2023-03-31T17:35:23.317Z,97185.22
2023-03-31T17:45:25.204Z,97190.03
2023-03-31T17:55:27.276Z,97201.25
2023-03-31T18:05:29.241Z,97219.50
2023-03-31T18:15:31.046Z,97209.84
2023-03-31T18:25:32.928Z,97213.00
2023-03-31T18:35:34.855Z,97212.94
2023-03-31T18:45:38.540Z,97210.50
2023-03-31T18:55:40.045Z,97235.75
2023-03-31T19:05:41.738Z,97230.81
2023-03-31T19:15:43.330Z,97237.50
2023-03-31T19:25:44.928Z,97238.56
2023-03-31T19:35:47.419Z,97235.00
2023-03-31T19:45:48.956Z,97238.44
2023-03-31T19:55:56.783Z,97231.69
2023-03-31T20:06:09.171Z,97216.84
2023-03-31T20:16:15.592Z,97219.50
2023-03-31T20:26:19.081Z,97220.25
2023-03-31T20:36:22.425Z,97223.41
2023-03-31T20:46:23.933Z,97212.34
2023-03-31T20:56:27.695Z,97225.22
2023-03-31T21:06:31.137Z,97213.38
2023-03-31T21:16:32.718Z,97218.16
2023-03-31T21:26:34.173Z,97216.53
2023-03-31T21:36:35.779Z,97220.28
2023-03-31T21:46:37.837Z,97214.59
2023-03-31T21:56:39.318Z,97205.16
2023-03-31T22:06:40.757Z,97200.59
2023-03-31T22:16:42.666Z,97208.13
2023-03-31T22:26:44.067Z,97203.22
2023-03-31T22:36:47.013Z,97212.34
2023-03-31T22:46:49.910Z,97212.03
2023-03-31T22:56:51.983Z,97210.66
2023-03-31T23:06:55.005Z,97201.19
2023-03-31T23:16:57.021Z,97207.63
2023-03-31T23:26:58.516Z,97204.41
2023-03-31T23:36:59.972Z,97206.19
2023-03-31T23:47:01.581Z,97203.72
2023-03-31T23:57:03.175Z,97208.56
